sensor_id;sensor_type;location;lat;lon;timestamp;pressure;altitude;pressure_sealevel;temperature
13570;BMP180;6856;51.460;7.158;2022-12-07T00:00:25;100448.00;;;9.30
13570;BMP180;6856;51.460;7.158;2022-12-07T00:02:59;100457.00;;;9.30
13570;BMP180;6856;51.460;7.158;2022-12-07T00:05:33;100450.00;;;9.30
13570;BMP180;6856;51.460;7.158;2022-12-07T00:08:08;100445.00;;;9.30
13570;BMP180;6856;51.460;7.158;2022-12-07T00:10:42;100449.00;;;9.30
13570;BMP180;6856;51.460;7.158;2022-12-07T00:13:16;100453.00;;;9.30
13570;BMP180;6856;51.460;7.158;2022-12-07T00:15:50;100441.00;;;9.30
13570;BMP180;6856;51.460;7.158;2022-12-07T00:18:24;100453.00;;;9.30
13570;BMP180;6856;51.460;7.158;2022-12-07T00:21:02;100455.00;;;9.20
13570;BMP180;6856;51.460;7.158;2022-12-07T00:23:39;100453.00;;;9.30
13570;BMP180;6856;51.460;7.158;2022-12-07T00:26:17;100442.00;;;9.30
13570;BMP180;6856;51.460;7.158;2022-12-07T00:28:53;100443.00;;;9.30
13570;BMP180;6856;51.460;7.158;2022-12-07T00:31:32;100454.00;;;9.30
13570;BMP180;6856;51.460;7.158;2022-12-07T00:34:12;100436.00;;;9.30
13570;BMP180;6856;51.460;7.158;2022-12-07T00:36:46;100448.00;;;9.30
13570;BMP180;6856;51.460;7.158;2022-12-07T00:39:22;100438.00;;;9.30
13570;BMP180;6856;51.460;7.158;2022-12-07T00:41:56;100443.00;;;9.30
13570;BMP180;6856;51.460;7.158;2022-12-07T00:44:31;100440.00;;;9.30
13570;BMP180;6856;51.460;7.158;2022-12-07T00:47:04;100429.00;;;9.30
13570;BMP180;6856;51.460;7.158;2022-12-07T00:49:38;100429.00;;;9.30
13570;BMP180;6856;51.460;7.158;2022-12-07T00:52:14;100432.00;;;9.30
13570;BMP180;6856;51.460;7.158;2022-12-07T00:54:50;100429.00;;;9.30
13570;BMP180;6856;51.460;7.158;2022-12-07T00:57:24;100429.00;;;9.30
13570;BMP180;6856;51.460;7.158;2022-12-07T00:59:59;100426.00;;;9.30
13570;BMP180;6856;51.460;7.158;2022-12-07T01:02:33;100426.00;;;9.30
13570;BMP180;6856;51.460;7.158;2022-12-07T01:05:10;100431.00;;;9.30
13570;BMP180;6856;51.460;7.158;2022-12-07T01:07:44;100423.00;;;9.40
13570;BMP180;6856;51.460;7.158;2022-12-07T01:10:20;100420.00;;;9.30
13570;BMP180;6856;51.460;7.158;2022-12-07T01:12:54;100415.00;;;9.30
13570;BMP180;6856;51.460;7.158;2022-12-07T01:15:28;100414.00;;;9.30
13570;BMP180;6856;51.460;7.158;2022-12-07T01:18:03;100403.00;;;9.30
13570;BMP180;6856;51.460;7.158;2022-12-07T01:20:37;100422.00;;;9.30
13570;BMP180;6856;51.460;7.158;2022-12-07T01:23:11;100422.00;;;9.30
13570;BMP180;6856;51.460;7.158;2022-12-07T01:25:55;100414.00;;;9.30
13570;BMP180;6856;51.460;7.158;2022-12-07T01:28:29;100395.00;;;9.40
13570;BMP180;6856;51.460;7.158;2022-12-07T01:31:06;100416.00;;;9.40
13570;BMP180;6856;51.460;7.158;2022-12-07T01:33:44;100416.00;;;9.30
13570;BMP180;6856;51.460;7.158;2022-12-07T01:36:22;100416.00;;;9.30
13570;BMP180;6856;51.460;7.158;2022-12-07T01:38:58;100409.00;;;9.30
13570;BMP180;6856;51.460;7.158;2022-12-07T01:41:38;100414.00;;;9.30
13570;BMP180;6856;51.460;7.158;2022-12-07T01:44:22;100422.00;;;9.30
13570;BMP180;6856;51.460;7.158;2022-12-07T01:46:58;100422.00;;;9.30
13570;BMP180;6856;51.460;7.158;2022-12-07T01:49:37;100425.00;;;9.30
13570;BMP180;6856;51.460;7.158;2022-12-07T01:52:16;100422.00;;;9.30
13570;BMP180;6856;51.460;7.158;2022-12-07T01:54:56;100428.00;;;9.30
13570;BMP180;6856;51.460;7.158;2022-12-07T01:57:38;100426.00;;;9.30
13570;BMP180;6856;51.460;7.158;2022-12-07T02:00:14;100422.00;;;9.30
13570;BMP180;6856;51.460;7.158;2022-12-07T02:02:54;100416.00;;;9.30
13570;BMP180;6856;51.460;7.158;2022-12-07T02:05:29;100421.00;;;9.30
13570;BMP180;6856;51.460;7.158;2022-12-07T02:08:05;100412.00;;;9.30
13570;BMP180;6856;51.460;7.158;2022-12-07T02:10:40;100412.00;;;9.30
13570;BMP180;6856;51.460;7.158;2022-12-07T02:13:20;100405.00;;;9.30
13570;BMP180;6856;51.460;7.158;2022-12-07T02:16:17;100414.00;;;9.30
13570;BMP180;6856;51.460;7.158;2022-12-07T02:19:27;100413.00;;;9.30
13570;BMP180;6856;51.460;7.158;2022-12-07T02:22:23;100411.00;;;9.20
13570;BMP180;6856;51.460;7.158;2022-12-07T02:25:14;100407.00;;;9.20
13570;BMP180;6856;51.460;7.158;2022-12-07T02:27:56;100402.00;;;9.20
13570;BMP180;6856;51.460;7.158;2022-12-07T02:30:42;100410.00;;;9.20
13570;BMP180;6856;51.460;7.158;2022-12-07T02:33:24;100408.00;;;9.20
13570;BMP180;6856;51.460;7.158;2022-12-07T02:36:05;100408.00;;;9.20
13570;BMP180;6856;51.460;7.158;2022-12-07T02:38:48;100412.00;;;9.20
13570;BMP180;6856;51.460;7.158;2022-12-07T02:41:30;100411.00;;;9.20
13570;BMP180;6856;51.460;7.158;2022-12-07T02:44:10;100417.00;;;9.30
13570;BMP180;6856;51.460;7.158;2022-12-07T02:46:54;100414.00;;;9.30
13570;BMP180;6856;51.460;7.158;2022-12-07T02:49:30;100409.00;;;9.30
13570;BMP180;6856;51.460;7.158;2022-12-07T02:52:04;100411.00;;;9.30
13570;BMP180;6856;51.460;7.158;2022-12-07T02:54:39;100406.00;;;9.30
13570;BMP180;6856;51.460;7.158;2022-12-07T02:57:46;100404.00;;;9.30
13570;BMP180;6856;51.460;7.158;2022-12-07T03:00:25;100411.00;;;9.30
13570;BMP180;6856;51.460;7.158;2022-12-07T03:03:06;100415.00;;;9.30
13570;BMP180;6856;51.460;7.158;2022-12-07T03:06:05;100419.00;;;9.30
13570;BMP180;6856;51.460;7.158;2022-12-07T03:08:51;100421.00;;;9.30
13570;BMP180;6856;51.460;7.158;2022-12-07T03:11:46;100414.00;;;9.30
13570;BMP180;6856;51.460;7.158;2022-12-07T03:14:28;100401.00;;;9.20
13570;BMP180;6856;51.460;7.158;2022-12-07T03:17:10;100413.00;;;9.20
13570;BMP180;6856;51.460;7.158;2022-12-07T03:19:51;100412.00;;;9.20
13570;BMP180;6856;51.460;7.158;2022-12-07T03:22:31;100406.00;;;9.20
13570;BMP180;6856;51.460;7.158;2022-12-07T03:25:11;100413.00;;;9.20
13570;BMP180;6856;51.460;7.158;2022-12-07T03:27:51;100413.00;;;9.20
13570;BMP180;6856;51.460;7.158;2022-12-07T03:30:34;100416.00;;;9.20
13570;BMP180;6856;51.460;7.158;2022-12-07T03:33:14;100388.00;;;9.20
13570;BMP180;6856;51.460;7.158;2022-12-07T03:35:59;100403.00;;;9.10
13570;BMP180;6856;51.460;7.158;2022-12-07T03:38:40;100401.00;;;9.10
13570;BMP180;6856;51.460;7.158;2022-12-07T03:41:22;100399.00;;;9.10
13570;BMP180;6856;51.460;7.158;2022-12-07T03:43:58;100404.00;;;9.10
13570;BMP180;6856;51.460;7.158;2022-12-07T03:46:39;100396.00;;;9.00
13570;BMP180;6856;51.460;7.158;2022-12-07T03:49:23;100398.00;;;9.00
13570;BMP180;6856;51.460;7.158;2022-12-07T03:52:12;100405.00;;;9.00
13570;BMP180;6856;51.460;7.158;2022-12-07T03:54:56;100400.00;;;9.00
13570;BMP180;6856;51.460;7.158;2022-12-07T03:57:35;100403.00;;;8.90
13570;BMP180;6856;51.460;7.158;2022-12-07T04:00:13;100405.00;;;8.90
13570;BMP180;6856;51.460;7.158;2022-12-07T04:02:47;100396.00;;;8.90
13570;BMP180;6856;51.460;7.158;2022-12-07T04:05:23;100404.00;;;8.90
13570;BMP180;6856;51.460;7.158;2022-12-07T04:07:58;100405.00;;;8.90
13570;BMP180;6856;51.460;7.158;2022-12-07T04:10:33;100404.00;;;8.90
13570;BMP180;6856;51.460;7.158;2022-12-07T04:13:09;100397.00;;;8.90
13570;BMP180;6856;51.460;7.158;2022-12-07T04:15:42;100400.00;;;8.90
13570;BMP180;6856;51.460;7.158;2022-12-07T04:18:18;100392.00;;;8.90
13570;BMP180;6856;51.460;7.158;2022-12-07T04:20:51;100398.00;;;8.90
13570;BMP180;6856;51.460;7.158;2022-12-07T04:23:27;100395.00;;;8.80
13570;BMP180;6856;51.460;7.158;2022-12-07T04:26:00;100391.00;;;8.80
13570;BMP180;6856;51.460;7.158;2022-12-07T04:28:34;100393.00;;;8.80
13570;BMP180;6856;51.460;7.158;2022-12-07T04:31:10;100393.00;;;8.80
13570;BMP180;6856;51.460;7.158;2022-12-07T04:33:44;100394.00;;;8.80
13570;BMP180;6856;51.460;7.158;2022-12-07T04:36:19;100392.00;;;8.80
13570;BMP180;6856;51.460;7.158;2022-12-07T04:38:55;100392.00;;;8.80
13570;BMP180;6856;51.460;7.158;2022-12-07T04:41:31;100397.00;;;8.80
13570;BMP180;6856;51.460;7.158;2022-12-07T04:44:06;100392.00;;;8.80
13570;BMP180;6856;51.460;7.158;2022-12-07T04:46:41;100403.00;;;8.80
13570;BMP180;6856;51.460;7.158;2022-12-07T04:49:16;100403.00;;;8.80
13570;BMP180;6856;51.460;7.158;2022-12-07T04:51:51;100399.00;;;8.80
13570;BMP180;6856;51.460;7.158;2022-12-07T04:54:27;100404.00;;;8.80
13570;BMP180;6856;51.460;7.158;2022-12-07T04:57:02;100397.00;;;8.80
13570;BMP180;6856;51.460;7.158;2022-12-07T04:59:35;100399.00;;;8.80
13570;BMP180;6856;51.460;7.158;2022-12-07T05:02:16;100396.00;;;8.80
13570;BMP180;6856;51.460;7.158;2022-12-07T05:04:50;100397.00;;;8.80
13570;BMP180;6856;51.460;7.158;2022-12-07T05:07:23;100391.00;;;8.80
13570;BMP180;6856;51.460;7.158;2022-12-07T05:09:59;100385.00;;;8.80
13570;BMP180;6856;51.460;7.158;2022-12-07T05:12:33;100394.00;;;8.80
13570;BMP180;6856;51.460;7.158;2022-12-07T05:15:09;100395.00;;;8.80
13570;BMP180;6856;51.460;7.158;2022-12-07T05:17:43;100389.00;;;8.80
13570;BMP180;6856;51.460;7.158;2022-12-07T05:20:17;100391.00;;;8.80
13570;BMP180;6856;51.460;7.158;2022-12-07T05:22:50;100392.00;;;8.80
13570;BMP180;6856;51.460;7.158;2022-12-07T05:25:26;100392.00;;;8.80
13570;BMP180;6856;51.460;7.158;2022-12-07T05:28:00;100396.00;;;8.70
13570;BMP180;6856;51.460;7.158;2022-12-07T05:30:35;100398.00;;;8.70
13570;BMP180;6856;51.460;7.158;2022-12-07T05:33:09;100395.00;;;8.70
13570;BMP180;6856;51.460;7.158;2022-12-07T05:35:42;100400.00;;;8.70
13570;BMP180;6856;51.460;7.158;2022-12-07T05:38:16;100400.00;;;8.70
13570;BMP180;6856;51.460;7.158;2022-12-07T05:40:53;100384.00;;;8.70
13570;BMP180;6856;51.460;7.158;2022-12-07T05:43:27;100382.00;;;8.70
13570;BMP180;6856;51.460;7.158;2022-12-07T05:46:01;100382.00;;;8.70
13570;BMP180;6856;51.460;7.158;2022-12-07T05:48:35;100380.00;;;8.70
13570;BMP180;6856;51.460;7.158;2022-12-07T05:51:09;100383.00;;;8.70
13570;BMP180;6856;51.460;7.158;2022-12-07T05:53:43;100381.00;;;8.60
13570;BMP180;6856;51.460;7.158;2022-12-07T05:56:19;100384.00;;;8.60
13570;BMP180;6856;51.460;7.158;2022-12-07T05:58:53;100384.00;;;8.60
13570;BMP180;6856;51.460;7.158;2022-12-07T06:01:45;100379.00;;;8.60
13570;BMP180;6856;51.460;7.158;2022-12-07T06:04:20;100378.00;;;8.60
13570;BMP180;6856;51.460;7.158;2022-12-07T06:06:54;100384.00;;;8.60
13570;BMP180;6856;51.460;7.158;2022-12-07T06:09:29;100390.00;;;8.60
13570;BMP180;6856;51.460;7.158;2022-12-07T06:12:06;100381.00;;;8.60
13570;BMP180;6856;51.460;7.158;2022-12-07T06:14:58;100387.00;;;8.60
13570;BMP180;6856;51.460;7.158;2022-12-07T06:17:34;100391.00;;;8.60
13570;BMP180;6856;51.460;7.158;2022-12-07T06:20:08;100392.00;;;8.60
13570;BMP180;6856;51.460;7.158;2022-12-07T06:22:43;100386.00;;;8.60
13570;BMP180;6856;51.460;7.158;2022-12-07T06:25:16;100387.00;;;8.60
13570;BMP180;6856;51.460;7.158;2022-12-07T06:27:52;100390.00;;;8.60
13570;BMP180;6856;51.460;7.158;2022-12-07T06:30:27;100393.00;;;8.60
13570;BMP180;6856;51.460;7.158;2022-12-07T06:33:01;100382.00;;;8.60
13570;BMP180;6856;51.460;7.158;2022-12-07T06:35:34;100393.00;;;8.60
13570;BMP180;6856;51.460;7.158;2022-12-07T06:38:08;100390.00;;;8.60
13570;BMP180;6856;51.460;7.158;2022-12-07T06:40:42;100394.00;;;8.60
13570;BMP180;6856;51.460;7.158;2022-12-07T06:43:17;100398.00;;;8.60
13570;BMP180;6856;51.460;7.158;2022-12-07T06:45:51;100396.00;;;8.60
13570;BMP180;6856;51.460;7.158;2022-12-07T06:48:26;100394.00;;;8.60
13570;BMP180;6856;51.460;7.158;2022-12-07T06:51:00;100399.00;;;8.60
13570;BMP180;6856;51.460;7.158;2022-12-07T06:53:34;100405.00;;;8.60
13570;BMP180;6856;51.460;7.158;2022-12-07T06:56:08;100411.00;;;8.60
13570;BMP180;6856;51.460;7.158;2022-12-07T06:58:44;100406.00;;;8.60
13570;BMP180;6856;51.460;7.158;2022-12-07T07:01:18;100394.00;;;8.60
13570;BMP180;6856;51.460;7.158;2022-12-07T07:03:52;100397.00;;;8.50
13570;BMP180;6856;51.460;7.158;2022-12-07T07:06:27;100386.00;;;8.50
13570;BMP180;6856;51.460;7.158;2022-12-07T07:09:02;100388.00;;;8.50
13570;BMP180;6856;51.460;7.158;2022-12-07T07:11:37;100398.00;;;8.50
13570;BMP180;6856;51.460;7.158;2022-12-07T07:14:12;100404.00;;;8.50
13570;BMP180;6856;51.460;7.158;2022-12-07T07:16:51;100397.00;;;8.50
13570;BMP180;6856;51.460;7.158;2022-12-07T07:19:25;100398.00;;;8.50
13570;BMP180;6856;51.460;7.158;2022-12-07T07:22:00;100401.00;;;8.50
13570;BMP180;6856;51.460;7.158;2022-12-07T07:24:33;100403.00;;;8.50
13570;BMP180;6856;51.460;7.158;2022-12-07T07:27:08;100398.00;;;8.50
13570;BMP180;6856;51.460;7.158;2022-12-07T07:29:43;100394.00;;;8.50
13570;BMP180;6856;51.460;7.158;2022-12-07T07:32:17;100406.00;;;8.60
13570;BMP180;6856;51.460;7.158;2022-12-07T07:34:51;100408.00;;;8.60
13570;BMP180;6856;51.460;7.158;2022-12-07T07:37:26;100414.00;;;8.60
13570;BMP180;6856;51.460;7.158;2022-12-07T07:40:00;100417.00;;;8.60
13570;BMP180;6856;51.460;7.158;2022-12-07T07:42:34;100411.00;;;8.50
13570;BMP180;6856;51.460;7.158;2022-12-07T07:45:10;100406.00;;;8.60
13570;BMP180;6856;51.460;7.158;2022-12-07T07:47:44;100417.00;;;8.60
13570;BMP180;6856;51.460;7.158;2022-12-07T07:50:19;100389.00;;;8.60
13570;BMP180;6856;51.460;7.158;2022-12-07T07:52:53;100422.00;;;8.60
13570;BMP180;6856;51.460;7.158;2022-12-07T07:55:27;100410.00;;;8.60
13570;BMP180;6856;51.460;7.158;2022-12-07T07:58:01;100415.00;;;8.60
13570;BMP180;6856;51.460;7.158;2022-12-07T08:00:36;100420.00;;;8.60
13570;BMP180;6856;51.460;7.158;2022-12-07T08:03:11;100415.00;;;8.60
13570;BMP180;6856;51.460;7.158;2022-12-07T08:05:44;100416.00;;;8.60
13570;BMP180;6856;51.460;7.158;2022-12-07T08:08:18;100419.00;;;8.60
13570;BMP180;6856;51.460;7.158;2022-12-07T08:10:52;100420.00;;;8.60
13570;BMP180;6856;51.460;7.158;2022-12-07T08:13:26;100421.00;;;8.60
13570;BMP180;6856;51.460;7.158;2022-12-07T08:16:07;100419.00;;;8.60
13570;BMP180;6856;51.460;7.158;2022-12-07T08:18:42;100416.00;;;8.60
13570;BMP180;6856;51.460;7.158;2022-12-07T08:21:17;100425.00;;;8.60
13570;BMP180;6856;51.460;7.158;2022-12-07T08:23:51;100421.00;;;8.60
13570;BMP180;6856;51.460;7.158;2022-12-07T08:26:25;100420.00;;;8.60
13570;BMP180;6856;51.460;7.158;2022-12-07T08:28:59;100426.00;;;8.60
13570;BMP180;6856;51.460;7.158;2022-12-07T08:31:35;100408.00;;;8.60
13570;BMP180;6856;51.460;7.158;2022-12-07T08:34:11;100408.00;;;8.70
13570;BMP180;6856;51.460;7.158;2022-12-07T08:36:47;100419.00;;;8.70
13570;BMP180;6856;51.460;7.158;2022-12-07T08:39:22;100418.00;;;8.70
13570;BMP180;6856;51.460;7.158;2022-12-07T08:42:04;100426.00;;;8.70
13570;BMP180;6856;51.460;7.158;2022-12-07T08:44:38;100430.00;;;8.70
13570;BMP180;6856;51.460;7.158;2022-12-07T08:47:14;100437.00;;;8.70
13570;BMP180;6856;51.460;7.158;2022-12-07T08:49:52;100433.00;;;8.70
13570;BMP180;6856;51.460;7.158;2022-12-07T08:52:27;100423.00;;;8.70
13570;BMP180;6856;51.460;7.158;2022-12-07T08:55:04;100421.00;;;8.70
13570;BMP180;6856;51.460;7.158;2022-12-07T08:57:39;100427.00;;;8.70
13570;BMP180;6856;51.460;7.158;2022-12-07T09:00:15;100421.00;;;8.70
13570;BMP180;6856;51.460;7.158;2022-12-07T09:02:53;100419.00;;;8.80
13570;BMP180;6856;51.460;7.158;2022-12-07T09:05:27;100425.00;;;8.80
13570;BMP180;6856;51.460;7.158;2022-12-07T09:08:02;100432.00;;;8.80
13570;BMP180;6856;51.460;7.158;2022-12-07T09:10:36;100434.00;;;8.80
13570;BMP180;6856;51.460;7.158;2022-12-07T09:13:09;100428.00;;;8.80
13570;BMP180;6856;51.460;7.158;2022-12-07T09:15:43;100429.00;;;8.80
13570;BMP180;6856;51.460;7.158;2022-12-07T09:18:19;100439.00;;;8.80
13570;BMP180;6856;51.460;7.158;2022-12-07T09:20:54;100437.00;;;8.80
13570;BMP180;6856;51.460;7.158;2022-12-07T09:23:28;100438.00;;;8.80
13570;BMP180;6856;51.460;7.158;2022-12-07T09:26:03;100442.00;;;8.80
13570;BMP180;6856;51.460;7.158;2022-12-07T09:28:42;100438.00;;;8.80
13570;BMP180;6856;51.460;7.158;2022-12-07T09:31:15;100438.00;;;8.80
13570;BMP180;6856;51.460;7.158;2022-12-07T09:33:59;100433.00;;;8.80
13570;BMP180;6856;51.460;7.158;2022-12-07T09:36:35;100438.00;;;8.80
13570;BMP180;6856;51.460;7.158;2022-12-07T09:39:09;100442.00;;;8.80
13570;BMP180;6856;51.460;7.158;2022-12-07T09:41:45;100438.00;;;8.80
13570;BMP180;6856;51.460;7.158;2022-12-07T09:44:24;100431.00;;;8.90
13570;BMP180;6856;51.460;7.158;2022-12-07T09:46:59;100429.00;;;8.90
13570;BMP180;6856;51.460;7.158;2022-12-07T09:49:34;100427.00;;;8.90
13570;BMP180;6856;51.460;7.158;2022-12-07T09:52:21;100424.00;;;8.90
13570;BMP180;6856;51.460;7.158;2022-12-07T09:55:00;100420.00;;;8.90
13570;BMP180;6856;51.460;7.158;2022-12-07T09:57:34;100416.00;;;8.90
13570;BMP180;6856;51.460;7.158;2022-12-07T10:00:15;100426.00;;;8.90
13570;BMP180;6856;51.460;7.158;2022-12-07T10:02:55;100424.00;;;8.90
13570;BMP180;6856;51.460;7.158;2022-12-07T10:05:35;100417.00;;;8.90
13570;BMP180;6856;51.460;7.158;2022-12-07T10:08:12;100416.00;;;9.00
13570;BMP180;6856;51.460;7.158;2022-12-07T10:10:52;100413.00;;;9.00
13570;BMP180;6856;51.460;7.158;2022-12-07T10:13:36;100412.00;;;9.00
13570;BMP180;6856;51.460;7.158;2022-12-07T10:16:36;100416.00;;;9.00
13570;BMP180;6856;51.460;7.158;2022-12-07T10:19:23;100405.00;;;9.10
13570;BMP180;6856;51.460;7.158;2022-12-07T10:22:16;100410.00;;;9.10
13570;BMP180;6856;51.460;7.158;2022-12-07T10:24:50;100404.00;;;9.10
13570;BMP180;6856;51.460;7.158;2022-12-07T10:27:30;100408.00;;;9.10
13570;BMP180;6856;51.460;7.158;2022-12-07T10:30:14;100413.00;;;9.10
13570;BMP180;6856;51.460;7.158;2022-12-07T10:32:49;100401.00;;;9.20
13570;BMP180;6856;51.460;7.158;2022-12-07T10:35:27;100398.00;;;9.20
13570;BMP180;6856;51.460;7.158;2022-12-07T10:38:16;100400.00;;;9.20
13570;BMP180;6856;51.460;7.158;2022-12-07T10:41:04;100390.00;;;9.20
13570;BMP180;6856;51.460;7.158;2022-12-07T10:43:49;100396.00;;;9.20
13570;BMP180;6856;51.460;7.158;2022-12-07T10:46:48;100385.00;;;9.30
13570;BMP180;6856;51.460;7.158;2022-12-07T10:50:14;100375.00;;;9.30
13570;BMP180;6856;51.460;7.158;2022-12-07T10:53:31;100387.00;;;9.30
13570;BMP180;6856;51.460;7.158;2022-12-07T10:56:36;100382.00;;;9.30
13570;BMP180;6856;51.460;7.158;2022-12-07T11:03:21;100373.00;;;9.30
13570;BMP180;6856;51.460;7.158;2022-12-07T11:06:10;100373.00;;;9.30
13570;BMP180;6856;51.460;7.158;2022-12-07T11:09:03;100371.00;;;9.30
13570;BMP180;6856;51.460;7.158;2022-12-07T11:11:44;100369.00;;;9.30
13570;BMP180;6856;51.460;7.158;2022-12-07T11:14:26;100359.00;;;9.40
13570;BMP180;6856;51.460;7.158;2022-12-07T11:17:12;100366.00;;;9.40
13570;BMP180;6856;51.460;7.158;2022-12-07T11:20:02;100362.00;;;9.40
13570;BMP180;6856;51.460;7.158;2022-12-07T11:22:48;100362.00;;;9.40
13570;BMP180;6856;51.460;7.158;2022-12-07T11:25:32;100363.00;;;9.40
13570;BMP180;6856;51.460;7.158;2022-12-07T11:28:27;100356.00;;;9.40
13570;BMP180;6856;51.460;7.158;2022-12-07T11:31:13;100351.00;;;9.50
13570;BMP180;6856;51.460;7.158;2022-12-07T11:34:08;100337.00;;;9.50
13570;BMP180;6856;51.460;7.158;2022-12-07T11:36:51;100335.00;;;9.50
13570;BMP180;6856;51.460;7.158;2022-12-07T11:39:33;100336.00;;;9.60
13570;BMP180;6856;51.460;7.158;2022-12-07T11:42:18;100332.00;;;9.60
13570;BMP180;6856;51.460;7.158;2022-12-07T11:45:00;100325.00;;;9.60
13570;BMP180;6856;51.460;7.158;2022-12-07T11:47:45;100326.00;;;9.60
13570;BMP180;6856;51.460;7.158;2022-12-07T11:50:33;100323.00;;;9.60
13570;BMP180;6856;51.460;7.158;2022-12-07T11:53:19;100320.00;;;9.70
13570;BMP180;6856;51.460;7.158;2022-12-07T11:56:01;100318.00;;;9.70
13570;BMP180;6856;51.460;7.158;2022-12-07T12:01:50;100316.00;;;9.80
13570;BMP180;6856;51.460;7.158;2022-12-07T12:04:35;100331.00;;;9.80
13570;BMP180;6856;51.460;7.158;2022-12-07T12:07:19;100335.00;;;9.80
13570;BMP180;6856;51.460;7.158;2022-12-07T12:10:21;100322.00;;;9.90
13570;BMP180;6856;51.460;7.158;2022-12-07T12:13:40;100306.00;;;9.90
13570;BMP180;6856;51.460;7.158;2022-12-07T12:20:06;100323.00;;;9.90
13570;BMP180;6856;51.460;7.158;2022-12-07T12:22:53;100314.00;;;9.90
13570;BMP180;6856;51.460;7.158;2022-12-07T12:25:39;100313.00;;;9.90
13570;BMP180;6856;51.460;7.158;2022-12-07T12:28:28;100310.00;;;10.00
13570;BMP180;6856;51.460;7.158;2022-12-07T12:31:11;100308.00;;;10.00
13570;BMP180;6856;51.460;7.158;2022-12-07T12:33:51;100309.00;;;10.00
13570;BMP180;6856;51.460;7.158;2022-12-07T12:36:28;100315.00;;;10.00
13570;BMP180;6856;51.460;7.158;2022-12-07T12:39:17;100309.00;;;10.00
13570;BMP180;6856;51.460;7.158;2022-12-07T12:41:56;100297.00;;;9.90
13570;BMP180;6856;51.460;7.158;2022-12-07T12:45:04;100301.00;;;10.00
13570;BMP180;6856;51.460;7.158;2022-12-07T12:47:59;100289.00;;;9.90
13570;BMP180;6856;51.460;7.158;2022-12-07T12:50:37;100288.00;;;10.00
13570;BMP180;6856;51.460;7.158;2022-12-07T12:53:20;100282.00;;;10.00
13570;BMP180;6856;51.460;7.158;2022-12-07T12:56:25;100286.00;;;10.00
13570;BMP180;6856;51.460;7.158;2022-12-07T12:59:24;100280.00;;;10.00
13570;BMP180;6856;51.460;7.158;2022-12-07T13:02:20;100286.00;;;10.10
13570;BMP180;6856;51.460;7.158;2022-12-07T13:04:56;100268.00;;;10.10
13570;BMP180;6856;51.460;7.158;2022-12-07T13:07:57;100268.00;;;10.10
13570;BMP180;6856;51.460;7.158;2022-12-07T13:10:43;100276.00;;;10.10
13570;BMP180;6856;51.460;7.158;2022-12-07T13:13:34;100279.00;;;10.10
13570;BMP180;6856;51.460;7.158;2022-12-07T13:16:40;100282.00;;;10.10
13570;BMP180;6856;51.460;7.158;2022-12-07T13:19:57;100282.00;;;10.00
13570;BMP180;6856;51.460;7.158;2022-12-07T13:22:58;100286.00;;;10.00
13570;BMP180;6856;51.460;7.158;2022-12-07T13:25:49;100268.00;;;10.00
13570;BMP180;6856;51.460;7.158;2022-12-07T13:28:33;100265.00;;;10.10
13570;BMP180;6856;51.460;7.158;2022-12-07T13:31:34;100270.00;;;10.00
13570;BMP180;6856;51.460;7.158;2022-12-07T13:34:32;100269.00;;;10.00
13570;BMP180;6856;51.460;7.158;2022-12-07T13:37:26;100263.00;;;10.00
13570;BMP180;6856;51.460;7.158;2022-12-07T13:40:20;100248.00;;;10.00
13570;BMP180;6856;51.460;7.158;2022-12-07T13:43:00;100249.00;;;10.00
13570;BMP180;6856;51.460;7.158;2022-12-07T13:45:34;100247.00;;;10.10
13570;BMP180;6856;51.460;7.158;2022-12-07T13:48:31;100249.00;;;10.10
13570;BMP180;6856;51.460;7.158;2022-12-07T13:51:19;100243.00;;;10.10
13570;BMP180;6856;51.460;7.158;2022-12-07T13:53:55;100247.00;;;10.10
13570;BMP180;6856;51.460;7.158;2022-12-07T13:56:35;100229.00;;;10.10
13570;BMP180;6856;51.460;7.158;2022-12-07T13:59:16;100237.00;;;10.20
13570;BMP180;6856;51.460;7.158;2022-12-07T14:01:52;100230.00;;;10.20
13570;BMP180;6856;51.460;7.158;2022-12-07T14:04:34;100230.00;;;10.20
13570;BMP180;6856;51.460;7.158;2022-12-07T14:07:24;100223.00;;;10.20
13570;BMP180;6856;51.460;7.158;2022-12-07T14:10:00;100219.00;;;10.20
13570;BMP180;6856;51.460;7.158;2022-12-07T14:13:27;100220.00;;;10.20
13570;BMP180;6856;51.460;7.158;2022-12-07T14:16:05;100231.00;;;10.20
13570;BMP180;6856;51.460;7.158;2022-12-07T14:18:51;100224.00;;;10.20
13570;BMP180;6856;51.460;7.158;2022-12-07T14:21:27;100224.00;;;10.30
13570;BMP180;6856;51.460;7.158;2022-12-07T14:24:18;100199.00;;;10.20
13570;BMP180;6856;51.460;7.158;2022-12-07T14:26:52;100208.00;;;10.30
13570;BMP180;6856;51.460;7.158;2022-12-07T14:29:33;100209.00;;;10.30
13570;BMP180;6856;51.460;7.158;2022-12-07T14:32:28;100213.00;;;10.30
13570;BMP180;6856;51.460;7.158;2022-12-07T14:35:10;100216.00;;;10.30
13570;BMP180;6856;51.460;7.158;2022-12-07T14:37:48;100215.00;;;10.30
13570;BMP180;6856;51.460;7.158;2022-12-07T14:40:24;100211.00;;;10.30
13570;BMP180;6856;51.460;7.158;2022-12-07T14:43:02;100207.00;;;10.20
13570;BMP180;6856;51.460;7.158;2022-12-07T14:45:38;100213.00;;;10.30
13570;BMP180;6856;51.460;7.158;2022-12-07T14:48:15;100213.00;;;10.20
13570;BMP180;6856;51.460;7.158;2022-12-07T14:51:12;100204.00;;;10.30
13570;BMP180;6856;51.460;7.158;2022-12-07T14:54:13;100204.00;;;10.20
13570;BMP180;6856;51.460;7.158;2022-12-07T14:56:48;100200.00;;;10.10
13570;BMP180;6856;51.460;7.158;2022-12-07T14:59:23;100199.00;;;10.20
13570;BMP180;6856;51.460;7.158;2022-12-07T15:01:58;100196.00;;;10.20
13570;BMP180;6856;51.460;7.158;2022-12-07T15:04:33;100200.00;;;10.20
13570;BMP180;6856;51.460;7.158;2022-12-07T15:07:15;100199.00;;;10.20
13570;BMP180;6856;51.460;7.158;2022-12-07T15:09:54;100203.00;;;10.20
13570;BMP180;6856;51.460;7.158;2022-12-07T15:12:28;100194.00;;;10.20
13570;BMP180;6856;51.460;7.158;2022-12-07T15:15:02;100193.00;;;10.20
13570;BMP180;6856;51.460;7.158;2022-12-07T15:17:38;100196.00;;;10.10
13570;BMP180;6856;51.460;7.158;2022-12-07T15:20:14;100188.00;;;10.10
13570;BMP180;6856;51.460;7.158;2022-12-07T15:22:50;100196.00;;;10.10
13570;BMP180;6856;51.460;7.158;2022-12-07T15:25:24;100191.00;;;10.10
13570;BMP180;6856;51.460;7.158;2022-12-07T15:27:57;100186.00;;;10.10
13570;BMP180;6856;51.460;7.158;2022-12-07T15:30:32;100188.00;;;10.10
13570;BMP180;6856;51.460;7.158;2022-12-07T15:33:07;100191.00;;;10.10
13570;BMP180;6856;51.460;7.158;2022-12-07T15:35:42;100192.00;;;10.10
13570;BMP180;6856;51.460;7.158;2022-12-07T15:38:16;100183.00;;;10.10
13570;BMP180;6856;51.460;7.158;2022-12-07T15:41:10;100181.00;;;10.00
13570;BMP180;6856;51.460;7.158;2022-12-07T15:43:46;100192.00;;;10.00